createdAt,value
2023-04-01T00:00:25.462Z,9.03
2023-04-01T00:03:55.269Z,9.06
2023-04-01T00:07:24.907Z,9.08
2023-04-01T00:11:00.354Z,9.08
2023-04-01T00:14:29.535Z,9.07
2023-04-01T00:18:01.244Z,9.04
2023-04-01T00:21:30.369Z,9.03
2023-04-01T00:25:00.327Z,8.98
2023-04-01T00:28:29.883Z,8.96
2023-04-01T00:31:59.382Z,8.95
2023-04-01T00:35:29.046Z,8.95
2023-04-01T00:38:58.210Z,8.92
2023-04-01T00:42:27.799Z,8.88
2023-04-01T00:46:06.256Z,8.84
2023-04-01T00:49:37.825Z,8.82
2023-04-01T00:53:07.005Z,8.85
2023-04-01T00:56:39.662Z,8.88
2023-04-01T01:00:09.114Z,8.90
2023-04-01T01:03:29.089Z,8.90
2023-04-01T01:07:07.016Z,8.91
2023-04-01T01:10:37.952Z,8.93
2023-04-01T01:14:19.628Z,8.92
2023-04-01T01:17:54.570Z,8.96
2023-04-01T01:21:23.738Z,8.98
2023-04-01T01:24:51.556Z,8.95
2023-04-01T01:28:20.620Z,8.97
2023-04-01T01:31:59.599Z,8.92
2023-04-01T01:35:36.400Z,8.89
2023-04-01T01:39:02.004Z,8.86
2023-04-01T01:42:31.417Z,8.84
2023-04-01T01:45:54.154Z,8.82
2023-04-01T01:49:23.346Z,8.81
2023-04-01T01:52:52.627Z,8.80
2023-04-01T01:56:30.753Z,8.76
2023-04-01T02:00:03.085Z,8.76
2023-04-01T02:03:32.140Z,8.75
2023-04-01T02:06:55.504Z,8.75
2023-04-01T02:10:25.420Z,8.75
2023-04-01T02:14:19.560Z,8.73
2023-04-01T02:17:47.702Z,8.77
2023-04-01T02:21:17.497Z,8.78
2023-04-01T02:24:46.689Z,8.76
2023-04-01T02:28:16.293Z,8.75
2023-04-01T02:31:48.623Z,8.75
2023-04-01T02:35:10.540Z,8.77
2023-04-01T02:38:39.897Z,8.77
2023-04-01T02:42:08.869Z,8.77
2023-04-01T02:45:38.196Z,8.75
2023-04-01T02:49:07.687Z,8.76
2023-04-01T02:52:37.086Z,8.76
2023-04-01T02:56:06.209Z,8.71
2023-04-01T02:59:35.799Z,8.64
2023-04-01T03:02:50.554Z,8.60
2023-04-01T03:06:21.595Z,8.57
2023-04-01T03:09:50.799Z,8.55
2023-04-01T03:13:19.982Z,8.52
2023-04-01T03:16:49.235Z,8.51
2023-04-01T03:20:18.233Z,8.47
2023-04-01T03:23:47.485Z,8.48
2023-04-01T03:27:16.684Z,8.48
2023-04-01T03:30:46.715Z,8.47
2023-04-01T03:34:04.619Z,8.46
2023-04-01T03:37:34.075Z,8.45
2023-04-01T03:41:03.289Z,8.43
2023-04-01T03:44:32.987Z,8.40
2023-04-01T03:48:02.800Z,8.34
2023-04-01T03:51:31.996Z,8.26
2023-04-01T03:55:01.838Z,8.21
2023-04-01T03:58:30.872Z,8.18
2023-04-01T04:02:00.155Z,8.18
2023-04-01T04:05:29.615Z,8.18
2023-04-01T04:08:50.463Z,8.16
2023-04-01T04:12:10.204Z,8.10
2023-04-01T04:15:39.304Z,8.03
2023-04-01T04:19:08.757Z,7.98
2023-04-01T04:22:37.887Z,7.93
2023-04-01T04:26:48.148Z,7.86
2023-04-01T04:30:00.200Z,7.78
2023-04-01T04:33:29.684Z,7.73
2023-04-01T04:37:00.002Z,7.72
2023-04-01T04:40:31.992Z,7.71
2023-04-01T04:44:01.535Z,7.70
2023-04-01T04:47:30.896Z,7.67
2023-04-01T04:50:53.070Z,7.66
2023-04-01T04:54:22.108Z,7.64
2023-04-01T04:57:51.155Z,7.63
2023-04-01T05:01:20.666Z,7.62
2023-04-01T05:04:49.559Z,7.63
2023-04-01T05:08:18.511Z,7.64
2023-04-01T05:11:47.663Z,7.66
2023-04-01T05:15:19.581Z,7.66
2023-04-01T05:18:49.044Z,7.66
2023-04-01T05:22:11.211Z,7.67
2023-04-01T05:25:40.448Z,7.65
2023-04-01T05:29:10.760Z,7.64
2023-04-01T05:32:33.729Z,7.67
2023-04-01T05:36:02.976Z,7.68
2023-04-01T05:39:32.483Z,7.69
2023-04-01T05:43:01.592Z,7.67
2023-04-01T05:46:30.976Z,7.66
2023-04-01T05:49:50.577Z,7.66
2023-04-01T05:53:20.135Z,7.66
2023-04-01T05:56:49.784Z,7.65
2023-04-01T06:00:19.118Z,7.65
2023-04-01T06:03:54.396Z,7.64
2023-04-01T06:07:26.456Z,7.65
2023-04-01T06:10:56.522Z,7.67
2023-04-01T06:14:31.671Z,7.70
2023-04-01T06:18:06.993Z,7.72
2023-04-01T06:21:45.727Z,7.71
2023-04-01T06:25:30.629Z,7.74
2023-04-01T06:29:31.217Z,7.76
2023-04-01T06:32:56.330Z,7.74
2023-04-01T06:36:35.404Z,7.72
2023-04-01T06:40:13.323Z,7.75
2023-04-01T06:43:46.155Z,7.75
2023-04-01T06:47:46.297Z,7.75
2023-04-01T06:51:33.206Z,7.76
2023-04-01T06:55:09.281Z,7.80
2023-04-01T06:58:39.172Z,7.81
2023-04-01T07:04:53.550Z,7.79
2023-04-01T07:08:23.313Z,7.76
2023-04-01T07:11:58.697Z,7.71
2023-04-01T07:15:31.101Z,7.66
2023-04-01T07:19:01.000Z,7.61
2023-04-01T07:22:31.251Z,7.59
2023-04-01T07:26:01.609Z,7.60
2023-04-01T07:29:34.503Z,7.56
2023-04-01T07:32:58.258Z,7.45
2023-04-01T07:36:34.354Z,7.40
2023-04-01T07:40:25.564Z,7.37
2023-04-01T07:44:01.543Z,7.32
2023-04-01T07:47:34.232Z,7.25
2023-04-01T07:51:09.898Z,7.19
2023-04-01T07:54:42.347Z,7.18
2023-04-01T07:58:20.424Z,7.15
2023-04-01T08:01:54.292Z,7.13
2023-04-01T08:05:29.692Z,7.11
2023-04-01T08:09:08.019Z,7.11
2023-04-01T08:12:47.740Z,7.07
2023-04-01T08:16:23.631Z,7.06
2023-04-01T08:20:14.536Z,7.04
2023-04-01T08:23:44.122Z,7.01
2023-04-01T08:27:11.847Z,6.99
2023-04-01T08:30:47.721Z,6.95
2023-04-01T08:34:23.581Z,6.91
2023-04-01T08:38:14.577Z,6.89
2023-04-01T08:42:00.109Z,6.87
2023-04-01T08:45:28.186Z,6.83
2023-04-01T08:48:59.497Z,6.78
2023-04-01T08:52:39.275Z,6.76
2023-04-01T08:56:24.252Z,6.73
2023-04-01T09:00:15.535Z,6.69
2023-04-01T09:03:53.215Z,6.67
2023-04-01T09:07:20.936Z,6.66
2023-04-01T09:10:55.547Z,6.64
2023-04-01T09:14:23.321Z,6.58
2023-04-01T09:18:02.416Z,6.55
2023-04-01T09:21:30.158Z,6.53
2023-04-01T09:25:14.808Z,6.53
2023-04-01T09:28:47.695Z,6.50
2023-04-01T09:32:15.265Z,6.46
2023-04-01T09:36:00.200Z,6.43
2023-04-01T09:39:33.024Z,6.42
2023-04-01T09:43:08.594Z,6.43
2023-04-01T09:46:30.118Z,6.46
2023-04-01T09:50:07.670Z,6.47
2023-04-01T09:53:46.658Z,6.47
2023-04-01T09:57:22.517Z,6.46
2023-04-01T10:00:53.852Z,6.46
2023-04-01T10:04:38.614Z,6.48
2023-04-01T10:08:24.472Z,6.47
2023-04-01T10:11:51.227Z,6.44
2023-04-01T10:15:30.069Z,6.42
2023-04-01T10:19:02.641Z,6.38
2023-04-01T10:22:33.814Z,6.34
2023-04-01T10:26:16.457Z,6.31
2023-04-01T10:29:43.908Z,6.28
2023-04-01T10:33:27.663Z,6.25
2023-04-01T10:36:58.598Z,6.26
2023-04-01T10:40:40.253Z,6.28
2023-04-01T10:44:23.511Z,6.26
2023-04-01T10:48:02.474Z,6.21
2023-04-01T10:51:49.406Z,6.21
2023-04-01T10:55:19.110Z,6.19
2023-04-01T10:58:57.625Z,6.17
2023-04-01T11:02:27.294Z,6.17
2023-04-01T11:06:01.607Z,6.13
2023-04-01T11:09:46.505Z,6.11
2023-04-01T11:13:18.779Z,6.09
2023-04-01T11:17:03.542Z,6.07
2023-04-01T11:20:31.505Z,6.06
2023-04-01T11:24:25.556Z,6.08
2023-04-01T11:28:17.170Z,6.08
2023-04-01T11:31:43.230Z,6.07
2023-04-01T11:35:04.807Z,6.08
2023-04-01T11:38:35.482Z,6.09
2023-04-01T11:42:11.513Z,6.11
2023-04-01T11:45:08.654Z,6.12
2023-04-01T11:48:50.806Z,6.12
2023-04-01T11:52:18.401Z,6.10
2023-04-01T11:55:50.578Z,6.09
2023-04-01T11:59:31.700Z,6.07
2023-04-01T12:03:04.651Z,6.05
2023-04-01T12:06:49.204Z,6.05
2023-04-01T12:10:24.377Z,6.07
2023-04-01T12:13:42.846Z,6.05
2023-04-01T12:16:52.396Z,6.04
2023-04-01T12:20:24.799Z,6.04
2023-04-01T12:24:06.783Z,6.06
2023-04-01T12:27:48.168Z,6.12
2023-04-01T12:31:22.452Z,6.20
2023-04-01T12:34:39.404Z,6.26
2023-04-01T12:38:13.372Z,6.30
2023-04-01T12:41:54.416Z,6.29
2023-04-01T12:45:24.340Z,6.31
2023-04-01T12:49:05.374Z,6.34
2023-04-01T12:52:50.572Z,6.36
2023-04-01T12:56:05.487Z,6.36
2023-04-01T12:59:38.104Z,6.35
2023-04-01T13:03:06.312Z,6.32
2023-04-01T13:06:43.901Z,6.30
2023-04-01T13:10:11.497Z,6.29
2023-04-01T13:13:50.548Z,6.29
2023-04-01T13:17:08.664Z,6.29
2023-04-01T13:20:39.114Z,6.28
2023-04-01T13:24:33.375Z,6.27
2023-04-01T13:28:05.229Z,6.21
2023-04-01T13:31:53.287Z,6.20
2023-04-01T13:35:31.903Z,6.18
2023-04-01T13:39:10.637Z,6.16
2023-04-01T13:42:45.783Z,6.14
2023-04-01T13:46:22.234Z,6.11
2023-04-01T13:50:13.163Z,6.08
2023-04-01T13:53:54.046Z,6.07
2023-04-01T13:57:48.358Z,6.05
2023-04-01T14:01:20.997Z,6.02
2023-04-01T14:04:44.571Z,6.01
2023-04-01T14:08:12.389Z,5.99
2023-04-01T14:11:56.463Z,5.91
2023-04-01T14:15:38.344Z,5.87
2023-04-01T14:19:05.771Z,5.86
2023-04-01T14:22:34.232Z,5.86
2023-04-01T14:26:05.105Z,5.86
2023-04-01T14:29:46.680Z,5.85
2023-04-01T14:33:31.377Z,5.84
2023-04-01T14:37:01.447Z,5.81
2023-04-01T14:40:29.235Z,5.82
2023-04-01T14:44:07.447Z,5.82
2023-04-01T14:47:43.960Z,5.82
2023-04-01T14:51:13.683Z,5.82
2023-04-01T14:54:45.372Z,5.85
2023-04-01T14:58:17.449Z,5.87
2023-04-01T15:01:58.385Z,5.90
2023-04-01T15:05:29.103Z,5.92
2023-04-01T15:09:20.451Z,5.93
2023-04-01T15:13:08.161Z,5.91
2023-04-01T15:17:11.679Z,5.93
2023-04-01T15:20:47.784Z,5.94
2023-04-01T15:24:14.851Z,5.95
2023-04-01T15:27:47.803Z,5.96
2023-04-01T15:31:05.541Z,5.97
2023-04-01T15:34:48.872Z,6.00
2023-04-01T15:38:21.618Z,6.04
2023-04-01T15:41:59.715Z,6.06
2023-04-01T15:45:43.842Z,6.08
2023-04-01T15:49:28.158Z,6.13
2023-04-01T15:53:08.315Z,6.15
2023-04-01T15:57:02.397Z,6.20
2023-04-01T16:00:39.580Z,6.25
2023-04-01T16:04:27.634Z,6.26
2023-04-01T16:08:03.168Z,6.27
2023-04-01T16:11:16.345Z,6.28
2023-04-01T16:14:59.490Z,6.33
2023-04-01T16:18:50.179Z,6.34
2023-04-01T16:22:32.272Z,6.36
2023-04-01T16:26:05.377Z,6.35
2023-04-01T16:29:41.168Z,6.38
2023-04-01T16:33:19.532Z,6.39
2023-04-01T16:37:06.227Z,6.42
2023-04-01T16:40:32.885Z,6.43
2023-04-01T16:44:17.894Z,6.44
2023-04-01T16:47:50.465Z,6.42
2023-04-01T16:51:23.144Z,6.40
2023-04-01T16:55:04.690Z,6.40
2023-04-01T16:58:49.525Z,6.40
2023-04-01T17:02:34.889Z,6.43
2023-04-01T17:06:04.542Z,6.47
2023-04-01T17:09:38.397Z,6.51
2023-04-01T17:13:20.175Z,6.55
2023-04-01T17:17:10.275Z,6.56
2023-04-01T17:21:04.558Z,6.61
2023-04-01T17:24:49.408Z,6.60
2023-04-01T17:28:09.948Z,6.57
2023-04-01T17:31:54.472Z,6.53
2023-04-01T17:35:25.551Z,6.51
2023-04-01T17:39:19.508Z,6.50
2023-04-01T17:43:02.521Z,6.51
2023-04-01T17:46:20.295Z,6.50
2023-04-01T17:50:17.328Z,6.46
2023-04-01T17:53:52.503Z,6.46
2023-04-01T17:57:25.122Z,6.48
2023-04-01T18:00:57.908Z,6.51
2023-04-01T18:04:58.385Z,6.53
2023-04-01T18:08:40.324Z,6.58
2023-04-01T18:12:13.050Z,6.65
2023-04-01T18:15:48.890Z,6.71
2023-04-01T18:19:29.504Z,6.77
2023-04-01T18:23:03.240Z,6.87
2023-04-01T18:26:38.230Z,6.97
2023-04-01T18:30:20.621Z,7.00
2023-04-01T18:33:52.841Z,7.02
2023-04-01T18:37:15.566Z,7.07
2023-04-01T18:40:54.332Z,7.15
2023-04-01T18:44:27.164Z,7.26
2023-04-01T18:48:08.433Z,7.35
2023-04-01T18:51:47.611Z,7.39
2023-04-01T18:55:17.495Z,7.45
2023-04-01T18:58:55.885Z,7.52
2023-04-01T19:02:34.653Z,7.60
2023-04-01T19:06:07.203Z,7.67
2023-04-01T19:09:29.597Z,7.74
2023-04-01T19:12:53.464Z,7.80
2023-04-01T19:16:28.717Z,7.87
2023-04-01T19:20:12.912Z,7.95
2023-04-01T19:24:04.033Z,8.03
2023-04-01T19:27:35.068Z,8.14
2023-04-01T19:31:23.551Z,8.25
2023-04-01T19:35:04.819Z,8.33
2023-04-01T19:38:40.308Z,8.38
2023-04-01T19:42:12.716Z,8.48
2023-04-01T19:45:47.944Z,8.59
2023-04-01T19:49:18.870Z,8.68
2023-04-01T19:53:03.403Z,8.73
2023-04-01T19:56:45.525Z,8.77
2023-04-01T20:00:14.911Z,8.75
2023-04-01T20:03:47.146Z,8.73
2023-04-01T20:07:21.574Z,8.71
2023-04-01T20:10:54.310Z,8.69
2023-04-01T20:14:42.379Z,8.72
2023-04-01T20:18:27.208Z,8.79
2023-04-01T20:22:17.533Z,8.85
2023-04-01T20:25:49.537Z,8.90
2023-04-01T20:29:22.279Z,8.95
2023-04-01T20:33:23.864Z,9.03
2023-04-01T20:36:52.621Z,9.09
2023-04-01T20:40:20.630Z,9.09
2023-04-01T20:43:54.693Z,9.09
2023-04-01T20:47:30.030Z,9.06
2023-04-01T20:51:20.819Z,8.99
2023-04-01T20:55:01.216Z,8.91
2023-04-01T20:58:34.201Z,8.82
2023-04-01T21:02:13.230Z,8.74
2023-04-01T21:05:55.996Z,8.66
2023-04-01T21:09:34.906Z,8.57
2023-04-01T21:13:06.057Z,8.41
2023-04-01T21:16:38.257Z,8.20
2023-04-01T21:19:39.274Z,7.98
2023-04-01T21:23:20.595Z,7.79
2023-04-01T21:26:56.926Z,7.58
2023-04-01T21:30:47.951Z,7.37
2023-04-01T21:34:34.923Z,7.24
2023-04-01T21:38:15.992Z,7.19
2023-04-01T21:41:49.107Z,7.18
2023-04-01T21:45:32.798Z,7.19
2023-04-01T21:49:19.131Z,7.19
2023-04-01T21:53:03.608Z,7.19
2023-04-01T21:56:45.694Z,7.15
2023-04-01T22:00:21.202Z,7.16
2023-04-01T22:03:56.968Z,7.15
2023-04-01T22:07:26.507Z,7.18
2023-04-01T22:11:02.114Z,7.20
2023-04-01T22:14:19.989Z,7.24
2023-04-01T22:18:04.568Z,7.32
2023-04-01T22:21:37.001Z,7.41
2023-04-01T22:25:12.143Z,7.50
2023-04-01T22:28:32.847Z,7.63
2023-04-01T22:32:05.460Z,7.72
2023-04-01T22:35:53.481Z,7.79
2023-04-01T22:39:53.202Z,7.89
2023-04-01T22:43:21.883Z,7.96
2023-04-01T22:47:03.683Z,8.00
2023-04-01T22:50:25.454Z,8.05
2023-04-01T22:53:55.076Z,8.10
2023-04-01T22:57:27.509Z,8.11
2023-04-01T23:00:57.234Z,8.08
2023-04-01T23:04:29.891Z,8.07
2023-04-01T23:08:17.291Z,8.10
2023-04-01T23:11:49.751Z,8.12
2023-04-01T23:15:31.895Z,8.13
2023-04-01T23:19:14.076Z,8.16
2023-04-01T23:22:49.505Z,8.15
2023-04-01T23:26:22.148Z,8.11
2023-04-01T23:29:51.780Z,8.06
2023-04-01T23:33:21.549Z,8.03
2023-04-01T23:36:53.801Z,8.03
2023-04-01T23:40:26.447Z,8.02
2023-04-01T23:44:05.952Z,8.02
2023-04-01T23:47:34.804Z,8.02
2023-04-01T23:51:07.478Z,8.03
2023-04-01T23:54:39.925Z,8.01
2023-04-01T23:58:12.198Z,7.98
